sensor_id;sensor_type;location;lat;lon;timestamp;temperature;humidity
24412;DHT22;12544;46.760;15.942;2023-04-02T00:01:41;10.60;99.90
24412;DHT22;12544;46.760;15.942;2023-04-02T00:04:11;10.50;99.90
24412;DHT22;12544;46.760;15.942;2023-04-02T00:06:38;10.50;99.90
24412;DHT22;12544;46.760;15.942;2023-04-02T00:11:37;10.40;99.90
24412;DHT22;12544;46.760;15.942;2023-04-02T00:17:13;10.40;99.90
24412;DHT22;12544;46.760;15.942;2023-04-02T00:22:20;10.40;99.90
24412;DHT22;12544;46.760;15.942;2023-04-02T00:24:49;10.40;99.90
24412;DHT22;12544;46.760;15.942;2023-04-02T00:27:15;10.40;99.90
24412;DHT22;12544;46.760;15.942;2023-04-02T00:29:47;10.40;99.90
24412;DHT22;12544;46.760;15.942;2023-04-02T00:32:17;10.50;99.90
24412;DHT22;12544;46.760;15.942;2023-04-02T00:34:45;10.40;99.90
24412;DHT22;12544;46.760;15.942;2023-04-02T00:37:14;10.40;99.90
24412;DHT22;12544;46.760;15.942;2023-04-02T00:39:42;10.40;99.90
24412;DHT22;12544;46.760;15.942;2023-04-02T00:42:08;10.40;99.90
24412;DHT22;12544;46.760;15.942;2023-04-02T00:44:39;10.30;99.90
24412;DHT22;12544;46.760;15.942;2023-04-02T00:50:18;10.30;99.90
24412;DHT22;12544;46.760;15.942;2023-04-02T00:52:47;10.20;99.90
24412;DHT22;12544;46.760;15.942;2023-04-02T00:55:21;10.20;99.90
24412;DHT22;12544;46.760;15.942;2023-04-02T00:57:48;10.10;99.90
24412;DHT22;12544;46.760;15.942;2023-04-02T01:00:19;10.00;99.90
24412;DHT22;12544;46.760;15.942;2023-04-02T01:05:32;9.90;99.90
24412;DHT22;12544;46.760;15.942;2023-04-02T01:18:46;9.80;99.90
24412;DHT22;12544;46.760;15.942;2023-04-02T01:24:05;9.80;99.90
24412;DHT22;12544;46.760;15.942;2023-04-02T01:26:49;9.70;99.90
24412;DHT22;12544;46.760;15.942;2023-04-02T01:29:21;9.60;99.90
24412;DHT22;12544;46.760;15.942;2023-04-02T01:31:47;9.60;99.90
24412;DHT22;12544;46.760;15.942;2023-04-02T01:34:18;9.50;99.90
24412;DHT22;12544;46.760;15.942;2023-04-02T01:39:50;9.60;99.90
24412;DHT22;12544;46.760;15.942;2023-04-02T01:42:24;9.60;99.90
24412;DHT22;12544;46.760;15.942;2023-04-02T01:47:17;9.70;99.90
24412;DHT22;12544;46.760;15.942;2023-04-02T01:49:43;9.70;99.90
24412;DHT22;12544;46.760;15.942;2023-04-02T01:52:16;9.70;99.90
24412;DHT22;12544;46.760;15.942;2023-04-02T01:54:42;9.70;99.90
24412;DHT22;12544;46.760;15.942;2023-04-02T01:57:08;9.60;99.90
24412;DHT22;12544;46.760;15.942;2023-04-02T01:59:33;9.60;99.90
24412;DHT22;12544;46.760;15.942;2023-04-02T02:02:00;9.50;99.90
24412;DHT22;12544;46.760;15.942;2023-04-02T02:04:27;9.60;99.90
24412;DHT22;12544;46.760;15.942;2023-04-02T02:06:53;9.60;99.90
24412;DHT22;12544;46.760;15.942;2023-04-02T02:09:22;9.60;99.90
24412;DHT22;12544;46.760;15.942;2023-04-02T02:11:49;9.40;99.90
24412;DHT22;12544;46.760;15.942;2023-04-02T02:14:19;9.30;99.90
24412;DHT22;12544;46.760;15.942;2023-04-02T02:19:50;9.20;99.90
24412;DHT22;12544;46.760;15.942;2023-04-02T02:22:30;9.10;99.90
24412;DHT22;12544;46.760;15.942;2023-04-02T02:24:57;9.10;99.90
24412;DHT22;12544;46.760;15.942;2023-04-02T02:29:53;8.90;99.90
24412;DHT22;12544;46.760;15.942;2023-04-02T02:32:20;8.90;99.90
24412;DHT22;12544;46.760;15.942;2023-04-02T02:37:52;8.70;99.90
24412;DHT22;12544;46.760;15.942;2023-04-02T02:40:19;8.70;99.90
24412;DHT22;12544;46.760;15.942;2023-04-02T02:42:53;8.70;99.90
24412;DHT22;12544;46.760;15.942;2023-04-02T02:45:23;8.70;99.90
24412;DHT22;12544;46.760;15.942;2023-04-02T02:47:49;8.80;99.90
24412;DHT22;12544;46.760;15.942;2023-04-02T02:50:18;8.70;99.90
24412;DHT22;12544;46.760;15.942;2023-04-02T02:52:45;8.70;99.90
24412;DHT22;12544;46.760;15.942;2023-04-02T02:55:12;8.70;99.90
24412;DHT22;12544;46.760;15.942;2023-04-02T02:57:45;8.70;99.90
24412;DHT22;12544;46.760;15.942;2023-04-02T03:00:11;8.70;99.90
24412;DHT22;12544;46.760;15.942;2023-04-02T03:02:37;8.70;99.90
24412;DHT22;12544;46.760;15.942;2023-04-02T03:05:04;8.70;99.90
24412;DHT22;12544;46.760;15.942;2023-04-02T03:07:30;8.70;99.90
24412;DHT22;12544;46.760;15.942;2023-04-02T03:12:38;8.80;99.90
24412;DHT22;12544;46.760;15.942;2023-04-02T03:17:52;8.70;99.90
24412;DHT22;12544;46.760;15.942;2023-04-02T03:23:00;8.60;99.90
24412;DHT22;12544;46.760;15.942;2023-04-02T03:25:32;8.50;99.90
24412;DHT22;12544;46.760;15.942;2023-04-02T03:28:02;8.50;99.90
24412;DHT22;12544;46.760;15.942;2023-04-02T03:30:32;8.50;99.90
24412;DHT22;12544;46.760;15.942;2023-04-02T03:33:00;8.50;99.90
24412;DHT22;12544;46.760;15.942;2023-04-02T03:38:31;8.50;99.90
24412;DHT22;12544;46.760;15.942;2023-04-02T03:41:14;8.50;99.90
24412;DHT22;12544;46.760;15.942;2023-04-02T03:43:48;8.50;99.90
24412;DHT22;12544;46.760;15.942;2023-04-02T03:49:01;8.40;99.90
24412;DHT22;12544;46.760;15.942;2023-04-02T03:52:18;8.50;99.90
24412;DHT22;12544;46.760;15.942;2023-04-02T03:54:15;8.50;99.90
24412;DHT22;12544;46.760;15.942;2023-04-02T03:56:41;8.60;99.90
24412;DHT22;12544;46.760;15.942;2023-04-02T03:59:23;8.60;99.90
24412;DHT22;12544;46.760;15.942;2023-04-02T04:01:57;8.60;99.90
24412;DHT22;12544;46.760;15.942;2023-04-02T04:04:24;8.60;99.90
24412;DHT22;12544;46.760;15.942;2023-04-02T04:06:51;8.50;99.90
24412;DHT22;12544;46.760;15.942;2023-04-02T04:11:43;8.60;99.90
24412;DHT22;12544;46.760;15.942;2023-04-02T04:19:49;8.60;99.90
24412;DHT22;12544;46.760;15.942;2023-04-02T04:22:23;8.60;99.90
24412;DHT22;12544;46.760;15.942;2023-04-02T04:24:59;8.60;99.90
24412;DHT22;12544;46.760;15.942;2023-04-02T04:27:35;8.60;99.90
24412;DHT22;12544;46.760;15.942;2023-04-02T04:30:04;8.50;99.90
24412;DHT22;12544;46.760;15.942;2023-04-02T04:38:03;8.50;99.90
24412;DHT22;12544;46.760;15.942;2023-04-02T04:40:32;8.50;99.90
24412;DHT22;12544;46.760;15.942;2023-04-02T04:43:02;8.50;99.90
24412;DHT22;12544;46.760;15.942;2023-04-02T04:45:46;8.50;99.90
24412;DHT22;12544;46.760;15.942;2023-04-02T04:51:03;8.60;99.90
24412;DHT22;12544;46.760;15.942;2023-04-02T04:53:30;8.60;99.90
24412;DHT22;12544;46.760;15.942;2023-04-02T04:55:59;8.60;99.90
24412;DHT22;12544;46.760;15.942;2023-04-02T04:58:31;8.60;99.90
24412;DHT22;12544;46.760;15.942;2023-04-02T05:01:15;8.60;99.90
24412;DHT22;12544;46.760;15.942;2023-04-02T05:03:53;8.60;99.90
24412;DHT22;12544;46.760;15.942;2023-04-02T05:12:25;8.70;99.90
24412;DHT22;12544;46.760;15.942;2023-04-02T05:15:00;8.60;99.90
24412;DHT22;12544;46.760;15.942;2023-04-02T05:17:34;8.70;99.90
24412;DHT22;12544;46.760;15.942;2023-04-02T05:20:02;8.70;99.90
24412;DHT22;12544;46.760;15.942;2023-04-02T05:22:40;8.60;99.90
24412;DHT22;12544;46.760;15.942;2023-04-02T05:27:38;8.50;99.90
24412;DHT22;12544;46.760;15.942;2023-04-02T05:30:12;8.50;99.90
24412;DHT22;12544;46.760;15.942;2023-04-02T05:32:40;8.50;99.90
24412;DHT22;12544;46.760;15.942;2023-04-02T05:38:16;8.50;99.90
24412;DHT22;12544;46.760;15.942;2023-04-02T05:40:43;8.60;99.90
24412;DHT22;12544;46.760;15.942;2023-04-02T05:43:12;8.60;99.90
24412;DHT22;12544;46.760;15.942;2023-04-02T05:45:41;8.70;99.90
24412;DHT22;12544;46.760;15.942;2023-04-02T05:48:19;8.70;99.90
24412;DHT22;12544;46.760;15.942;2023-04-02T05:50:50;8.70;99.90
24412;DHT22;12544;46.760;15.942;2023-04-02T05:53:21;8.80;99.90
24412;DHT22;12544;46.760;15.942;2023-04-02T06:03:51;8.80;99.90
24412;DHT22;12544;46.760;15.942;2023-04-02T06:07:04;8.90;99.90
24412;DHT22;12544;46.760;15.942;2023-04-02T06:09:12;8.90;99.90
24412;DHT22;12544;46.760;15.942;2023-04-02T06:11:41;8.90;99.90
24412;DHT22;12544;46.760;15.942;2023-04-02T06:14:13;8.90;99.90
24412;DHT22;12544;46.760;15.942;2023-04-02T06:16:39;8.90;99.90
24412;DHT22;12544;46.760;15.942;2023-04-02T06:19:06;9.00;99.90
24412;DHT22;12544;46.760;15.942;2023-04-02T06:21:32;8.90;99.90
24412;DHT22;12544;46.760;15.942;2023-04-02T06:23:59;8.90;99.90
24412;DHT22;12544;46.760;15.942;2023-04-02T06:26:33;8.80;99.90
24412;DHT22;12544;46.760;15.942;2023-04-02T06:34:00;8.70;99.90
24412;DHT22;12544;46.760;15.942;2023-04-02T06:36:27;8.70;99.90
24412;DHT22;12544;46.760;15.942;2023-04-02T06:38:54;8.80;99.90
24412;DHT22;12544;46.760;15.942;2023-04-02T06:41:22;8.90;99.90
24412;DHT22;12544;46.760;15.942;2023-04-02T06:43:49;9.00;99.90
24412;DHT22;12544;46.760;15.942;2023-04-02T06:46:19;9.10;99.90
24412;DHT22;12544;46.760;15.942;2023-04-02T06:48:46;9.10;99.90
24412;DHT22;12544;46.760;15.942;2023-04-02T06:51:13;9.00;99.90
24412;DHT22;12544;46.760;15.942;2023-04-02T06:53:44;9.10;99.90
24412;DHT22;12544;46.760;15.942;2023-04-02T07:02:00;9.30;99.90
24412;DHT22;12544;46.760;15.942;2023-04-02T07:04:27;9.30;99.90
24412;DHT22;12544;46.760;15.942;2023-04-02T07:06:53;9.30;99.90
24412;DHT22;12544;46.760;15.942;2023-04-02T07:09:19;9.50;99.90
24412;DHT22;12544;46.760;15.942;2023-04-02T07:11:44;9.40;99.90
24412;DHT22;12544;46.760;15.942;2023-04-02T07:14:11;9.40;99.90
24412;DHT22;12544;46.760;15.942;2023-04-02T07:16:37;9.50;99.90
24412;DHT22;12544;46.760;15.942;2023-04-02T07:19:03;9.60;99.90
24412;DHT22;12544;46.760;15.942;2023-04-02T07:21:28;9.50;99.90
24412;DHT22;12544;46.760;15.942;2023-04-02T07:23:54;9.50;99.90
24412;DHT22;12544;46.760;15.942;2023-04-02T07:26:24;9.60;99.90
24412;DHT22;12544;46.760;15.942;2023-04-02T07:28:51;9.60;99.90
24412;DHT22;12544;46.760;15.942;2023-04-02T07:31:18;9.60;99.90
24412;DHT22;12544;46.760;15.942;2023-04-02T07:33:44;9.70;99.90
24412;DHT22;12544;46.760;15.942;2023-04-02T07:36:17;9.90;99.90
24412;DHT22;12544;46.760;15.942;2023-04-02T07:38:42;10.00;99.90
24412;DHT22;12544;46.760;15.942;2023-04-02T07:41:08;10.00;99.90
24412;DHT22;12544;46.760;15.942;2023-04-02T07:43:34;10.10;99.90
24412;DHT22;12544;46.760;15.942;2023-04-02T07:46:00;10.20;99.90
24412;DHT22;12544;46.760;15.942;2023-04-02T07:48:26;10.30;99.90
24412;DHT22;12544;46.760;15.942;2023-04-02T07:50:51;10.30;99.90
24412;DHT22;12544;46.760;15.942;2023-04-02T07:53:25;10.30;99.90
24412;DHT22;12544;46.760;15.942;2023-04-02T07:55:52;10.50;99.90
24412;DHT22;12544;46.760;15.942;2023-04-02T07:58:17;10.50;99.90
24412;DHT22;12544;46.760;15.942;2023-04-02T08:00:43;10.70;99.90
24412;DHT22;12544;46.760;15.942;2023-04-02T08:03:08;10.80;99.90
24412;DHT22;12544;46.760;15.942;2023-04-02T08:08:37;11.10;99.90
24412;DHT22;12544;46.760;15.942;2023-04-02T08:11:03;11.10;99.90
24412;DHT22;12544;46.760;15.942;2023-04-02T08:13:28;11.20;99.90
24412;DHT22;12544;46.760;15.942;2023-04-02T08:16:00;11.30;99.90
24412;DHT22;12544;46.760;15.942;2023-04-02T08:18:25;11.40;99.90
24412;DHT22;12544;46.760;15.942;2023-04-02T08:23:54;11.60;99.90
24412;DHT22;12544;46.760;15.942;2023-04-02T08:26:20;11.80;99.90
24412;DHT22;12544;46.760;15.942;2023-04-02T08:28:46;11.90;99.90
24412;DHT22;12544;46.760;15.942;2023-04-02T08:31:11;12.10;99.90
24412;DHT22;12544;46.760;15.942;2023-04-02T08:33:37;12.20;99.90
24412;DHT22;12544;46.760;15.942;2023-04-02T08:36:03;12.10;99.90
24412;DHT22;12544;46.760;15.942;2023-04-02T08:38:28;12.30;99.90
24412;DHT22;12544;46.760;15.942;2023-04-02T08:40:55;12.20;99.90
24412;DHT22;12544;46.760;15.942;2023-04-02T08:48:53;12.50;99.90
24412;DHT22;12544;46.760;15.942;2023-04-02T08:51:24;12.60;99.90
24412;DHT22;12544;46.760;15.942;2023-04-02T08:53:50;12.60;99.90
24412;DHT22;12544;46.760;15.942;2023-04-02T08:56:18;12.80;99.90
24412;DHT22;12544;46.760;15.942;2023-04-02T08:58:47;12.80;99.90
24412;DHT22;12544;46.760;15.942;2023-04-02T09:01:34;12.90;99.90
24412;DHT22;12544;46.760;15.942;2023-04-02T09:04:01;12.90;99.90
24412;DHT22;12544;46.760;15.942;2023-04-02T09:06:27;13.00;99.90
24412;DHT22;12544;46.760;15.942;2023-04-02T09:08:53;13.10;99.90
24412;DHT22;12544;46.760;15.942;2023-04-02T09:13:46;13.50;99.90
24412;DHT22;12544;46.760;15.942;2023-04-02T09:16:14;13.50;99.90
24412;DHT22;12544;46.760;15.942;2023-04-02T09:21:51;13.50;99.90
24412;DHT22;12544;46.760;15.942;2023-04-02T09:24:19;13.50;99.90
24412;DHT22;12544;46.760;15.942;2023-04-02T09:26:44;13.50;99.90
24412;DHT22;12544;46.760;15.942;2023-04-02T09:31:41;13.70;99.90
24412;DHT22;12544;46.760;15.942;2023-04-02T09:37:15;13.70;99.90
24412;DHT22;12544;46.760;15.942;2023-04-02T09:39:41;13.80;99.90
24412;DHT22;12544;46.760;15.942;2023-04-02T09:42:07;13.90;99.90
24412;DHT22;12544;46.760;15.942;2023-04-02T09:44:52;14.00;99.90
24412;DHT22;12544;46.760;15.942;2023-04-02T09:47:24;13.90;99.90
24412;DHT22;12544;46.760;15.942;2023-04-02T09:52:53;14.10;99.90
24412;DHT22;12544;46.760;15.942;2023-04-02T09:55:20;14.30;99.90
24412;DHT22;12544;46.760;15.942;2023-04-02T09:57:46;14.40;99.90
24412;DHT22;12544;46.760;15.942;2023-04-02T10:02:44;14.40;99.90
24412;DHT22;12544;46.760;15.942;2023-04-02T10:05:20;14.50;99.90
24412;DHT22;12544;46.760;15.942;2023-04-02T10:07:48;14.50;99.90
24412;DHT22;12544;46.760;15.942;2023-04-02T10:10:30;14.40;99.90
24412;DHT22;12544;46.760;15.942;2023-04-02T10:15:28;14.80;99.90
24412;DHT22;12544;46.760;15.942;2023-04-02T10:17:58;15.00;99.90
24412;DHT22;12544;46.760;15.942;2023-04-02T10:20:26;15.30;99.90
24412;DHT22;12544;46.760;15.942;2023-04-02T10:22:54;15.60;99.90
24412;DHT22;12544;46.760;15.942;2023-04-02T10:25:20;15.80;99.90
24412;DHT22;12544;46.760;15.942;2023-04-02T10:28:08;16.10;99.90
24412;DHT22;12544;46.760;15.942;2023-04-02T10:33:26;16.50;99.90
24412;DHT22;12544;46.760;15.942;2023-04-02T10:46:47;17.10;93.70
24412;DHT22;12544;46.760;15.942;2023-04-02T10:54:43;17.60;98.90
24412;DHT22;12544;46.760;15.942;2023-04-02T10:57:13;17.70;96.60
24412;DHT22;12544;46.760;15.942;2023-04-02T10:59:43;17.70;95.20
24412;DHT22;12544;46.760;15.942;2023-04-02T11:02:24;17.80;96.20
24412;DHT22;12544;46.760;15.942;2023-04-02T11:04:50;18.00;97.70
24412;DHT22;12544;46.760;15.942;2023-04-02T11:07:19;18.20;98.80
24412;DHT22;12544;46.760;15.942;2023-04-02T11:09:46;18.40;95.60
24412;DHT22;12544;46.760;15.942;2023-04-02T11:14:44;18.70;95.00
24412;DHT22;12544;46.760;15.942;2023-04-02T11:17:10;18.90;94.00
24412;DHT22;12544;46.760;15.942;2023-04-02T11:19:37;18.90;91.60
24412;DHT22;12544;46.760;15.942;2023-04-02T11:22:16;19.00;92.50
24412;DHT22;12544;46.760;15.942;2023-04-02T11:27:13;19.00;92.60
24412;DHT22;12544;46.760;15.942;2023-04-02T11:32:54;18.80;89.20
24412;DHT22;12544;46.760;15.942;2023-04-02T11:37:36;18.70;88.30
24412;DHT22;12544;46.760;15.942;2023-04-02T11:43:45;19.30;87.10
24412;DHT22;12544;46.760;15.942;2023-04-02T11:50:44;19.60;81.60
24412;DHT22;12544;46.760;15.942;2023-04-02T11:55:36;18.90;84.70
24412;DHT22;12544;46.760;15.942;2023-04-02T12:05:53;19.00;83.60
24412;DHT22;12544;46.760;15.942;2023-04-02T12:13:18;18.90;83.60
24412;DHT22;12544;46.760;15.942;2023-04-02T12:15:44;19.00;87.80
24412;DHT22;12544;46.760;15.942;2023-04-02T12:18:15;19.00;86.40
24412;DHT22;12544;46.760;15.942;2023-04-02T12:20:44;19.10;81.80
24412;DHT22;12544;46.760;15.942;2023-04-02T12:23:21;19.30;82.90
24412;DHT22;12544;46.760;15.942;2023-04-02T12:25:55;19.30;81.40
24412;DHT22;12544;46.760;15.942;2023-04-02T12:28:21;19.20;78.20
24412;DHT22;12544;46.760;15.942;2023-04-02T12:30:46;19.10;81.80
24412;DHT22;12544;46.760;15.942;2023-04-02T12:33:33;19.00;80.40
24412;DHT22;12544;46.760;15.942;2023-04-02T12:38:50;18.80;83.30
24412;DHT22;12544;46.760;15.942;2023-04-02T12:41:23;18.80;85.20
24412;DHT22;12544;46.760;15.942;2023-04-02T12:44:04;18.70;82.10
24412;DHT22;12544;46.760;15.942;2023-04-02T12:46:32;18.70;79.70
24412;DHT22;12544;46.760;15.942;2023-04-02T12:52:01;18.70;81.40
24412;DHT22;12544;46.760;15.942;2023-04-02T12:54:27;18.80;82.90
24412;DHT22;12544;46.760;15.942;2023-04-02T12:57:18;18.90;81.70
24412;DHT22;12544;46.760;15.942;2023-04-02T12:59:40;19.00;82.30
24412;DHT22;12544;46.760;15.942;2023-04-02T13:02:19;19.40;82.70
24412;DHT22;12544;46.760;15.942;2023-04-02T13:04:46;19.60;80.00
24412;DHT22;12544;46.760;15.942;2023-04-02T13:07:14;19.70;78.50
24412;DHT22;12544;46.760;15.942;2023-04-02T13:09:43;19.70;79.00
24412;DHT22;12544;46.760;15.942;2023-04-02T13:14:54;19.60;81.20
24412;DHT22;12544;46.760;15.942;2023-04-02T13:18:21;19.20;77.10
24412;DHT22;12544;46.760;15.942;2023-04-02T13:25:53;18.80;87.60
24412;DHT22;12544;46.760;15.942;2023-04-02T13:28:19;18.60;88.00
24412;DHT22;12544;46.760;15.942;2023-04-02T13:30:44;18.50;88.10
24412;DHT22;12544;46.760;15.942;2023-04-02T13:33:10;18.20;86.10
24412;DHT22;12544;46.760;15.942;2023-04-02T13:35:36;18.10;89.50
24412;DHT22;12544;46.760;15.942;2023-04-02T13:38:01;18.00;86.10
24412;DHT22;12544;46.760;15.942;2023-04-02T13:40:28;17.90;87.30
24412;DHT22;12544;46.760;15.942;2023-04-02T13:42:53;17.70;84.00
24412;DHT22;12544;46.760;15.942;2023-04-02T13:45:23;17.50;85.20
24412;DHT22;12544;46.760;15.942;2023-04-02T13:47:50;17.30;88.10
24412;DHT22;12544;46.760;15.942;2023-04-02T13:50:16;17.30;89.80
24412;DHT22;12544;46.760;15.942;2023-04-02T13:52:42;17.30;90.20
24412;DHT22;12544;46.760;15.942;2023-04-02T13:55:07;17.40;89.40
24412;DHT22;12544;46.760;15.942;2023-04-02T13:57:34;17.40;91.10
24412;DHT22;12544;46.760;15.942;2023-04-02T14:00:00;17.50;92.00
24412;DHT22;12544;46.760;15.942;2023-04-02T14:02:26;17.60;92.60
24412;DHT22;12544;46.760;15.942;2023-04-02T14:04:58;17.80;92.10
24412;DHT22;12544;46.760;15.942;2023-04-02T14:07:30;17.90;91.50
24412;DHT22;12544;46.760;15.942;2023-04-02T14:15:12;17.40;92.40
24412;DHT22;12544;46.760;15.942;2023-04-02T14:30:03;15.70;96.10
24412;DHT22;12544;46.760;15.942;2023-04-02T14:32:38;15.70;96.50
24412;DHT22;12544;46.760;15.942;2023-04-02T14:37:45;15.70;96.30
24412;DHT22;12544;46.760;15.942;2023-04-02T14:43:09;15.80;95.40
24412;DHT22;12544;46.760;15.942;2023-04-02T14:50:57;15.90;94.20
24412;DHT22;12544;46.760;15.942;2023-04-02T14:56:09;15.90;92.50
24412;DHT22;12544;46.760;15.942;2023-04-02T14:58:37;16.00;92.40
24412;DHT22;12544;46.760;15.942;2023-04-02T15:01:08;16.00;93.50
24412;DHT22;12544;46.760;15.942;2023-04-02T15:03:41;15.90;92.60
24412;DHT22;12544;46.760;15.942;2023-04-02T15:06:11;15.90;94.00
24412;DHT22;12544;46.760;15.942;2023-04-02T15:08:39;16.10;92.50
24412;DHT22;12544;46.760;15.942;2023-04-02T15:11:08;16.10;93.60
24412;DHT22;12544;46.760;15.942;2023-04-02T15:13:41;16.40;93.00
24412;DHT22;12544;46.760;15.942;2023-04-02T15:16:12;16.70;93.80
24412;DHT22;12544;46.760;15.942;2023-04-02T15:18:38;16.90;91.20
24412;DHT22;12544;46.760;15.942;2023-04-02T15:26:18;16.90;92.20
24412;DHT22;12544;46.760;15.942;2023-04-02T15:28:50;16.80;92.30
24412;DHT22;12544;46.760;15.942;2023-04-02T15:31:18;16.80;92.00
24412;DHT22;12544;46.760;15.942;2023-04-02T15:38:57;16.20;91.40
24412;DHT22;12544;46.760;15.942;2023-04-02T15:41:26;15.90;93.30
24412;DHT22;12544;46.760;15.942;2023-04-02T15:43:59;15.80;93.20
24412;DHT22;12544;46.760;15.942;2023-04-02T15:49:15;15.70;94.50
24412;DHT22;12544;46.760;15.942;2023-04-02T15:51:49;15.70;95.10
24412;DHT22;12544;46.760;15.942;2023-04-02T15:54:42;15.60;94.50
24412;DHT22;12544;46.760;15.942;2023-04-02T15:57:18;15.50;93.60
24412;DHT22;12544;46.760;15.942;2023-04-02T16:02:27;15.50;93.00
24412;DHT22;12544;46.760;15.942;2023-04-02T16:10:15;14.90;94.40
24412;DHT22;12544;46.760;15.942;2023-04-02T16:12:44;14.80;95.70
24412;DHT22;12544;46.760;15.942;2023-04-02T16:15:21;14.50;96.90
24412;DHT22;12544;46.760;15.942;2023-04-02T16:18:05;14.40;97.50
24412;DHT22;12544;46.760;15.942;2023-04-02T16:20:35;14.40;97.60
24412;DHT22;12544;46.760;15.942;2023-04-02T16:23:04;14.20;98.40
24412;DHT22;12544;46.760;15.942;2023-04-02T16:25:44;14.20;98.80
24412;DHT22;12544;46.760;15.942;2023-04-02T16:28:23;14.10;99.00
24412;DHT22;12544;46.760;15.942;2023-04-02T16:30:55;14.00;99.30
24412;DHT22;12544;46.760;15.942;2023-04-02T16:33:33;13.90;99.00
24412;DHT22;12544;46.760;15.942;2023-04-02T16:48:51;13.40;98.80
24412;DHT22;12544;46.760;15.942;2023-04-02T16:56:28;13.00;99.10
24412;DHT22;12544;46.760;15.942;2023-04-02T16:59:12;13.00;99.10
24412;DHT22;12544;46.760;15.942;2023-04-02T17:01:59;13.00;99.00
24412;DHT22;12544;46.760;15.942;2023-04-02T17:04:42;12.90;99.10
24412;DHT22;12544;46.760;15.942;2023-04-02T17:09:49;12.60;99.70
24412;DHT22;12544;46.760;15.942;2023-04-02T17:14:55;12.40;99.90
24412;DHT22;12544;46.760;15.942;2023-04-02T17:17:22;12.30;99.90
24412;DHT22;12544;46.760;15.942;2023-04-02T17:19:49;12.20;99.70
24412;DHT22;12544;46.760;15.942;2023-04-02T17:22:17;12.10;99.90
24412;DHT22;12544;46.760;15.942;2023-04-02T17:24:44;12.00;99.90
24412;DHT22;12544;46.760;15.942;2023-04-02T17:29:50;11.80;99.90
24412;DHT22;12544;46.760;15.942;2023-04-02T17:32:20;11.60;99.90
24412;DHT22;12544;46.760;15.942;2023-04-02T17:34:46;11.50;99.90
24412;DHT22;12544;46.760;15.942;2023-04-02T17:39:44;11.00;99.90
24412;DHT22;12544;46.760;15.942;2023-04-02T17:42:15;10.80;99.90
24412;DHT22;12544;46.760;15.942;2023-04-02T17:44:45;10.70;99.90
24412;DHT22;12544;46.760;15.942;2023-04-02T17:47:19;10.50;99.90
24412;DHT22;12544;46.760;15.942;2023-04-02T17:57:54;10.30;99.90
24412;DHT22;12544;46.760;15.942;2023-04-02T18:05:41;9.90;99.90
24412;DHT22;12544;46.760;15.942;2023-04-02T18:31:10;9.50;99.90
24412;DHT22;12544;46.760;15.942;2023-04-02T18:42:02;9.50;99.90
24412;DHT22;12544;46.760;15.942;2023-04-02T18:44:42;9.40;99.90
24412;DHT22;12544;46.760;15.942;2023-04-02T18:47:21;9.30;99.90
24412;DHT22;12544;46.760;15.942;2023-04-02T18:49:50;9.40;99.90
24412;DHT22;12544;46.760;15.942;2023-04-02T18:52:18;9.40;99.90
24412;DHT22;12544;46.760;15.942;2023-04-02T18:54:48;9.30;99.90
24412;DHT22;12544;46.760;15.942;2023-04-02T18:57:20;9.30;99.90
24412;DHT22;12544;46.760;15.942;2023-04-02T18:59:53;9.30;99.90
24412;DHT22;12544;46.760;15.942;2023-04-02T19:02:24;9.30;99.90
24412;DHT22;12544;46.760;15.942;2023-04-02T19:04:56;9.30;99.90
24412;DHT22;12544;46.760;15.942;2023-04-02T19:07:22;9.30;99.90
24412;DHT22;12544;46.760;15.942;2023-04-02T19:09:48;9.30;99.90
24412;DHT22;12544;46.760;15.942;2023-04-02T19:12:16;9.20;99.90
24412;DHT22;12544;46.760;15.942;2023-04-02T19:14:43;9.30;99.90
24412;DHT22;12544;46.760;15.942;2023-04-02T19:22:26;9.20;99.90
24412;DHT22;12544;46.760;15.942;2023-04-02T19:27:54;9.10;99.90
24412;DHT22;12544;46.760;15.942;2023-04-02T19:35:31;9.10;99.90
24412;DHT22;12544;46.760;15.942;2023-04-02T19:43:40;9.00;99.90
24412;DHT22;12544;46.760;15.942;2023-04-02T19:46:05;8.90;99.90
24412;DHT22;12544;46.760;15.942;2023-04-02T19:48:37;8.80;99.90
24412;DHT22;12544;46.760;15.942;2023-04-02T19:51:05;8.80;99.90
24412;DHT22;12544;46.760;15.942;2023-04-02T19:53:31;8.60;99.90
24412;DHT22;12544;46.760;15.942;2023-04-02T19:55:57;8.60;99.90
24412;DHT22;12544;46.760;15.942;2023-04-02T19:58:29;8.50;99.90
24412;DHT22;12544;46.760;15.942;2023-04-02T20:00:55;8.50;99.90
24412;DHT22;12544;46.760;15.942;2023-04-02T20:03:21;8.60;99.90
24412;DHT22;12544;46.760;15.942;2023-04-02T20:05:47;8.50;99.90
24412;DHT22;12544;46.760;15.942;2023-04-02T20:08:13;8.40;99.90
24412;DHT22;12544;46.760;15.942;2023-04-02T20:10:38;8.40;99.90
24412;DHT22;12544;46.760;15.942;2023-04-02T20:13:04;8.40;99.90
24412;DHT22;12544;46.760;15.942;2023-04-02T20:15:29;8.40;99.90
24412;DHT22;12544;46.760;15.942;2023-04-02T20:17:55;8.40;99.90
24412;DHT22;12544;46.760;15.942;2023-04-02T20:20:21;8.40;99.90
24412;DHT22;12544;46.760;15.942;2023-04-02T20:22:46;8.20;99.90
24412;DHT22;12544;46.760;15.942;2023-04-02T20:25:12;8.20;99.90
24412;DHT22;12544;46.760;15.942;2023-04-02T20:27:37;8.10;99.90
24412;DHT22;12544;46.760;15.942;2023-04-02T20:30:03;8.10;99.90
24412;DHT22;12544;46.760;15.942;2023-04-02T20:32:29;8.10;99.90
24412;DHT22;12544;46.760;15.942;2023-04-02T20:34:54;8.10;99.90
24412;DHT22;12544;46.760;15.942;2023-04-02T20:37:20;8.10;99.90
24412;DHT22;12544;46.760;15.942;2023-04-02T20:39:46;8.00;99.90
24412;DHT22;12544;46.760;15.942;2023-04-02T20:42:12;7.90;99.90
24412;DHT22;12544;46.760;15.942;2023-04-02T20:50:44;7.80;99.90
24412;DHT22;12544;46.760;15.942;2023-04-02T20:53:12;7.70;99.90
24412;DHT22;12544;46.760;15.942;2023-04-02T20:55:44;7.70;99.90
24412;DHT22;12544;46.760;15.942;2023-04-02T20:58:13;7.50;99.90
24412;DHT22;12544;46.760;15.942;2023-04-02T21:00:39;7.50;99.90
24412;DHT22;12544;46.760;15.942;2023-04-02T21:03:05;7.50;99.90
24412;DHT22;12544;46.760;15.942;2023-04-02T21:05:31;7.50;99.90
24412;DHT22;12544;46.760;15.942;2023-04-02T21:07:56;7.50;99.90
24412;DHT22;12544;46.760;15.942;2023-04-02T21:10:22;7.40;99.90
24412;DHT22;12544;46.760;15.942;2023-04-02T21:12:48;7.30;99.90
24412;DHT22;12544;46.760;15.942;2023-04-02T21:15:14;7.30;99.90
24412;DHT22;12544;46.760;15.942;2023-04-02T21:17:39;7.20;99.90
24412;DHT22;12544;46.760;15.942;2023-04-02T21:20:05;7.10;99.90
24412;DHT22;12544;46.760;15.942;2023-04-02T21:22:31;7.10;99.90
24412;DHT22;12544;46.760;15.942;2023-04-02T21:24:56;7.10;99.90
24412;DHT22;12544;46.760;15.942;2023-04-02T21:27:22;7.10;99.90